Time;durP1;ratioP1;P1;durP2;ratioP2;P2;SDS_P1;SDS_P2;PMS_P1;PMS_P2;Temp;Humidity;BMP_temperature;BMP_pressure;BME280_temperature;BME280_humidity;BME280_pressure;Samples;Min_cycle;Max_cycle;Signal;HPM_P1;HPM_P2
2023/11/02 00:01:12;;;;;;;2.70;1.33;;;;;;;8.91;100.00;153647.28;4934625;29;20479;-77
2023/11/02 00:03:41;;;;;;;1.43;1.10;;;;;;;8.89;99.70;153643.41;4950817;29;20796;-77
2023/11/02 00:06:25;;;;;;;1.30;1.00;;;;;;;8.87;100.00;153636.94;4950491;29;20453;-77
2023/11/02 00:09:14;;;;;;;2.20;1.43;;;;;;;8.92;99.47;153649.88;4950635;29;20816;-77
2023/11/02 00:11:52;;;;;;;1.80;1.23;;;;;;;8.96;98.90;153661.50;4966361;29;20519;-77
2023/11/02 00:14:19;;;;;;;1.87;1.10;;;;;;;8.92;99.29;153651.13;4966446;28;20439;-77
2023/11/02 00:16:47;;;;;;;2.00;1.13;;;;;;;8.88;100.00;153639.50;4949838;29;20459;-77
2023/11/02 00:19:23;;;;;;;2.13;1.27;;;;;;;8.83;100.00;153627.88;4950121;29;20471;-77
2023/11/02 00:21:50;;;;;;;2.00;1.27;;;;;;;8.82;100.00;153625.28;4950444;29;20451;-76
2023/11/02 00:24:17;;;;;;;2.20;1.60;;;;;;;8.75;100.00;153605.91;4950202;29;20459;-77
2023/11/02 00:26:44;;;;;;;2.90;1.33;;;;;;;8.72;100.00;153599.44;4934331;29;20467;-77
2023/11/02 00:29:11;;;;;;;2.00;1.40;;;;;;;8.69;100.00;153590.38;4950278;29;20447;-77
2023/11/02 00:31:38;;;;;;;1.70;1.30;;;;;;;8.64;100.00;153577.44;4933527;29;20523;-77
2023/11/02 00:34:07;;;;;;;1.90;1.20;;;;;;;8.62;100.00;153572.28;4949764;29;20518;-77
2023/11/02 00:36:34;;;;;;;2.17;1.60;;;;;;;8.63;100.00;153574.88;4949438;29;20459;-77
2023/11/02 00:39:02;;;;;;;1.67;1.40;;;;;;;8.60;100.00;153567.13;4933469;29;20570;-77
2023/11/02 00:41:29;;;;;;;3.10;1.37;;;;;;;8.52;100.00;153549.00;4949597;29;20451;-77
2023/11/02 00:43:56;;;;;;;2.10;1.20;;;;;;;8.52;100.00;153549.00;4949870;29;20474;-77
2023/11/02 00:46:23;;;;;;;3.13;1.87;;;;;;;8.49;100.00;153539.97;4933374;29;20471;-77
2023/11/02 00:48:51;;;;;;;2.10;1.20;;;;;;;8.41;100.00;153520.59;4933224;29;20439;-77
2023/11/02 00:51:24;;;;;;;2.23;1.40;;;;;;;8.42;100.00;153523.16;4932925;29;20456;-77
2023/11/02 00:53:56;;;;;;;1.73;1.33;;;;;;;8.42;100.00;153521.84;4951315;29;20459;-77
2023/11/02 00:56:24;;;;;;;2.37;1.30;;;;;;;8.39;100.00;153514.13;4952009;29;20534;-77
2023/11/02 00:58:53;;;;;;;1.90;1.10;;;;;;;8.43;100.00;153524.47;4951379;29;20515;-77
2023/11/02 01:01:21;;;;;;;1.73;1.10;;;;;;;8.45;100.00;153530.91;4950104;29;20486;-77
2023/11/02 01:03:51;;;;;;;1.50;1.00;;;;;;;8.45;100.00;153530.91;4949937;29;20452;-76
2023/11/02 01:06:21;;;;;;;3.83;1.20;;;;;;;8.45;100.00;153530.91;4949618;29;20648;-76
2023/11/02 01:08:55;;;;;;;2.03;1.33;;;;;;;8.56;99.38;153559.38;4933922;29;20491;-76
2023/11/02 01:11:25;;;;;;;1.60;1.07;;;;;;;8.54;99.30;153554.19;4949359;29;20472;-76
2023/11/02 01:13:53;;;;;;;1.80;1.17;;;;;;;8.46;99.72;153533.53;4965510;29;20443;-76
2023/11/02 01:16:19;;;;;;;2.17;1.20;;;;;;;8.48;99.86;153538.69;4949333;29;20439;-76
2023/11/02 01:18:47;;;;;;;1.40;1.10;;;;;;;8.53;99.37;153551.59;4949447;29;20802;-76
2023/11/02 01:21:15;;;;;;;2.70;1.57;;;;;;;8.61;98.86;153569.69;4949201;29;20506;-77
2023/11/02 01:23:44;;;;;;;2.50;1.67;;;;;;;8.61;98.49;153569.69;4949909;29;20432;-77
2023/11/02 01:26:40;;;;;;;3.73;1.10;;;;;;;8.59;98.21;153565.81;4949810;29;20443;-76
2023/11/02 01:29:07;;;;;;;2.10;1.07;;;;;;;8.55;98.61;153556.75;4949587;29;20455;-77
2023/11/02 01:31:35;;;;;;;1.43;1.00;;;;;;;8.52;98.90;153547.75;4949742;29;20464;-77
2023/11/02 01:34:03;;;;;;;1.50;1.00;;;;;;;8.46;99.20;153532.22;4949646;29;20518;-77
2023/11/02 01:36:32;;;;;;;1.40;1.13;;;;;;;8.42;99.25;153523.16;4949606;29;20530;-77
2023/11/02 01:39:10;;;;;;;1.30;1.10;;;;;;;8.36;99.55;153507.69;4949112;29;20917;-77
2023/11/02 01:41:43;;;;;;;2.10;1.23;;;;;;;8.41;99.60;153520.59;4949731;29;20883;-77
2023/11/02 01:44:19;;;;;;;1.80;1.10;;;;;;;8.38;99.65;153512.84;4949751;29;20451;-77
2023/11/02 01:46:54;;;;;;;2.27;1.57;;;;;;;8.33;100.00;153499.91;4949578;29;20455;-77
2023/11/02 01:49:28;;;;;;;1.73;0.90;;;;;;;8.34;100.00;153501.22;4933351;29;20495;-77
2023/11/02 01:51:59;;;;;;;1.90;1.30;;;;;;;8.41;100.00;153520.59;4949209;29;20481;-77
2023/11/02 01:54:34;;;;;;;3.33;1.33;;;;;;;8.42;100.00;153523.16;4949439;29;20800;-77
2023/11/02 01:57:04;;;;;;;2.13;1.47;;;;;;;8.41;100.00;153519.28;4949648;29;20475;-77
2023/11/02 01:59:37;;;;;;;2.23;1.20;;;;;;;8.42;100.00;153521.84;4949301;29;20473;-77
2023/11/02 02:02:09;;;;;;;2.37;1.33;;;;;;;8.42;100.00;153523.16;4949573;29;20776;-77
2023/11/02 02:04:39;;;;;;;1.70;1.20;;;;;;;8.52;100.00;153547.75;4949467;29;20447;-77
2023/11/02 02:07:12;;;;;;;1.60;1.30;;;;;;;8.56;100.00;153559.38;4933085;29;20451;-76
2023/11/02 02:09:50;;;;;;;1.50;1.20;;;;;;;8.55;99.81;153555.50;4949285;29;20450;-77
2023/11/02 02:12:24;;;;;;;3.77;2.13;;;;;;;8.58;100.00;153563.22;4949066;29;20456;-76
2023/11/02 02:14:59;;;;;;;1.93;1.47;;;;;;;8.51;100.00;153545.13;4936833;29;20754;-77
2023/11/02 02:17:30;;;;;;;1.43;1.33;;;;;;;8.44;100.00;153528.34;4952489;29;20453;-77
2023/11/02 02:20:03;;;;;;;1.80;1.40;;;;;;;8.49;100.00;153539.97;4952511;29;20471;-77
2023/11/02 02:22:34;;;;;;;1.80;1.47;;;;;;;8.50;100.00;153543.84;4951920;29;20676;-77
2023/11/02 02:25:10;;;;;;;2.33;1.50;;;;;;;8.52;100.00;153549.00;4968350;29;20422;-77
2023/11/02 02:28:02;;;;;;;2.00;1.60;;;;;;;8.54;100.00;153554.19;4952137;29;20450;-77
2023/11/02 02:30:43;;;;;;;2.17;1.50;;;;;;;8.55;100.00;153555.50;4951902;29;20519;-77
2023/11/02 02:33:30;;;;;;;2.60;1.97;;;;;;;8.55;100.00;153555.50;4951863;29;20464;-77
2023/11/02 02:36:03;;;;;;;1.97;1.47;;;;;;;8.58;100.00;153563.22;4951619;29;20471;-76
2023/11/02 02:38:37;;;;;;;2.20;1.87;;;;;;;8.57;100.00;153561.97;4951425;29;20530;-76
2023/11/02 02:41:09;;;;;;;4.03;2.30;;;;;;;8.60;100.00;153568.44;4951092;29;20482;-76
2023/11/02 02:43:37;;;;;;;2.30;1.77;;;;;;;8.60;100.00;153568.44;4935458;29;20432;-76
2023/11/02 02:46:05;;;;;;;3.07;1.67;;;;;;;8.63;100.00;153574.88;4951683;29;20459;-76
2023/11/02 02:48:33;;;;;;;5.43;1.90;;;;;;;8.66;100.00;153583.91;4951508;29;20539;-76
2023/11/02 02:51:03;;;;;;;2.13;1.93;;;;;;;8.63;100.00;153576.13;4951598;29;20482;-76
2023/11/02 02:53:33;;;;;;;1.97;1.50;;;;;;;8.63;100.00;153576.13;4967006;29;20479;-76
2023/11/02 02:56:06;;;;;;;2.97;1.90;;;;;;;8.62;100.00;153572.28;4951305;29;20462;-76
2023/11/02 02:58:35;;;;;;;3.30;1.83;;;;;;;8.58;100.00;153563.22;4951486;29;20447;-76
2023/11/02 03:01:05;;;;;;;2.80;1.90;;;;;;;8.57;100.00;153561.97;4951511;29;20797;-76
2023/11/02 03:03:35;;;;;;;2.30;1.40;;;;;;;8.54;100.00;153554.19;4951666;29;20473;-76
2023/11/02 03:06:03;;;;;;;2.10;1.90;;;;;;;8.55;100.00;153556.75;4951218;29;20475;-76
2023/11/02 03:08:31;;;;;;;2.23;1.30;;;;;;;8.56;100.00;153559.38;4935389;29;20793;-76
2023/11/02 03:10:59;;;;;;;2.30;1.50;;;;;;;8.56;100.00;153558.06;4967068;28;20503;-76
2023/11/02 03:13:27;;;;;;;2.30;1.83;;;;;;;8.56;100.00;153558.06;4950811;29;20529;-76
2023/11/02 03:15:55;;;;;;;2.30;1.83;;;;;;;8.65;100.00;153580.03;4950704;29;20454;-76
2023/11/02 03:18:26;;;;;;;2.77;1.57;;;;;;;8.66;100.00;153582.66;4950752;29;20463;-77
2023/11/02 03:20:53;;;;;;;2.00;1.30;;;;;;;8.63;100.00;153574.88;4950956;29;20474;-77
2023/11/02 03:23:29;;;;;;;4.37;1.70;;;;;;;8.61;100.00;153569.69;4966716;28;20444;-77
2023/11/02 03:26:04;;;;;;;2.33;1.83;;;;;;;8.57;100.00;153561.97;4950445;29;20446;-77
2023/11/02 03:28:38;;;;;;;1.80;1.57;;;;;;;8.55;100.00;153555.50;4951595;29;20480;-77
2023/11/02 03:31:15;;;;;;;1.73;1.63;;;;;;;8.58;100.00;153563.22;4951430;29;20701;-77
2023/11/02 03:33:49;;;;;;;3.20;1.77;;;;;;;8.57;100.00;153561.97;4951351;29;20459;-77
2023/11/02 03:36:20;;;;;;;2.03;1.63;;;;;;;8.55;100.00;153555.50;4935636;29;20452;-77
2023/11/02 03:39:02;;;;;;;2.70;1.83;;;;;;;8.54;100.00;153554.19;4950871;29;20672;-77
2023/11/02 03:41:42;;;;;;;1.93;1.43;;;;;;;8.60;100.00;153567.13;4950892;29;20491;-77
2023/11/02 03:44:16;;;;;;;2.47;1.47;;;;;;;8.63;100.00;153574.88;4950804;29;20612;-77
2023/11/02 03:46:51;;;;;;;1.90;1.60;;;;;;;8.63;100.00;153576.13;4934790;29;20446;-77
2023/11/02 03:49:24;;;;;;;2.23;1.80;;;;;;;8.66;100.00;153582.66;4935112;29;20494;-77
2023/11/02 03:52:03;;;;;;;2.00;1.47;;;;;;;8.67;100.00;153585.22;4950957;29;20454;-77
2023/11/02 03:54:55;;;;;;;2.50;1.60;;;;;;;8.70;100.00;153592.97;4950373;29;20451;-77
2023/11/02 03:57:28;;;;;;;3.57;1.60;;;;;;;8.72;100.00;153599.44;4949851;29;20463;-77
2023/11/02 04:00:04;;;;;;;2.50;1.37;;;;;;;8.77;100.00;153611.06;4965830;29;20538;-77
2023/11/02 04:02:45;;;;;;;2.50;1.87;;;;;;;8.80;100.00;153620.13;4949616;29;20454;-77
2023/11/02 04:05:14;;;;;;;1.90;1.53;;;;;;;8.83;100.00;153626.59;4934351;29;20440;-77
2023/11/02 04:08:00;;;;;;;2.60;1.90;;;;;;;8.79;100.00;153617.50;4934000;29;20685;-77
2023/11/02 04:10:31;;;;;;;3.03;2.10;;;;;;;8.83;100.00;153626.59;4949625;29;20448;-76
2023/11/02 04:13:10;;;;;;;2.87;2.17;;;;;;;8.79;100.00;153616.25;4950618;29;20523;-76
2023/11/02 04:15:37;;;;;;;2.83;2.00;;;;;;;8.79;100.00;153616.25;4935712;29;20427;-76
2023/11/02 04:18:04;;;;;;;2.50;1.90;;;;;;;8.82;100.00;153623.97;4934536;29;20539;-76
2023/11/02 04:20:31;;;;;;;2.47;2.27;;;;;;;8.72;100.00;153599.44;4949820;29;20556;-76
2023/11/02 04:22:58;;;;;;;2.20;1.53;;;;;;;8.70;100.00;153592.97;4949582;29;20439;-76
2023/11/02 04:25:25;;;;;;;2.50;1.93;;;;;;;8.65;100.00;153580.03;4934267;29;20458;-75
2023/11/02 04:27:54;;;;;;;2.47;2.13;;;;;;;8.61;100.00;153570.97;4950035;29;20448;-75
2023/11/02 04:30:21;;;;;;;2.70;1.53;;;;;;;8.67;100.00;153585.22;4950064;29;20452;-76
2023/11/02 04:32:48;;;;;;;1.70;1.60;;;;;;;8.74;100.00;153603.28;4949610;29;20447;-76
2023/11/02 04:35:15;;;;;;;1.67;1.13;;;;;;;8.96;100.00;153660.19;4949602;29;20839;-76
2023/11/02 04:37:41;;;;;;;2.40;1.80;;;;;;;8.98;100.00;153665.34;4949470;29;20485;-76
2023/11/02 04:40:09;;;;;;;2.07;1.20;;;;;;;8.98;100.00;153665.34;4949520;29;20475;-77
2023/11/02 04:42:36;;;;;;;1.90;1.47;;;;;;;8.92;100.00;153651.13;4949725;29;20741;-77
2023/11/02 04:45:05;;;;;;;1.90;1.50;;;;;;;8.98;100.00;153665.34;4933596;29;20526;-77
2023/11/02 04:47:32;;;;;;;1.90;1.60;;;;;;;8.97;100.00;153664.09;4949181;29;20459;-77
2023/11/02 04:50:00;;;;;;;3.43;1.20;;;;;;;8.97;100.00;153664.09;4965070;28;20635;-76
2023/11/02 04:52:36;;;;;;;2.87;1.60;;;;;;;8.89;100.00;153642.13;4965150;28;20459;-76
2023/11/02 04:55:04;;;;;;;2.20;1.40;;;;;;;8.80;100.00;153618.81;4949069;29;20439;-76
2023/11/02 04:57:31;;;;;;;2.20;1.70;;;;;;;8.84;100.00;153629.19;4949636;29;20526;-76
2023/11/02 05:00:00;;;;;;;1.60;1.50;;;;;;;8.85;100.00;153631.75;4949666;29;20980;-76
2023/11/02 05:02:28;;;;;;;2.60;1.33;;;;;;;8.85;100.00;153631.75;4949369;29;20471;-76
2023/11/02 05:04:55;;;;;;;5.23;1.60;;;;;;;8.85;100.00;153633.03;4949602;29;20538;-77
2023/11/02 05:07:22;;;;;;;2.73;2.17;;;;;;;8.83;100.00;153626.59;4949076;29;20526;-77
2023/11/02 05:09:49;;;;;;;2.10;1.53;;;;;;;8.81;100.00;153622.72;4949614;29;20454;-76
2023/11/02 05:12:15;;;;;;;2.00;1.80;;;;;;;8.70;100.00;153592.97;4948119;29;20527;-77
2023/11/02 05:14:43;;;;;;;3.27;1.80;;;;;;;8.73;100.00;153600.72;4949516;29;20459;-77
2023/11/02 05:17:10;;;;;;;2.20;1.53;;;;;;;8.73;100.00;153602.03;4949726;29;20482;-77
2023/11/02 05:19:38;;;;;;;2.07;1.70;;;;;;;8.84;100.00;153630.44;4949823;29;20780;-77
2023/11/02 05:22:05;;;;;;;2.07;1.57;;;;;;;8.95;100.00;153657.59;4933360;29;20725;-76
2023/11/02 05:24:32;;;;;;;2.67;1.90;;;;;;;9.02;100.00;153677.03;4949459;29;20459;-77
2023/11/02 05:26:59;;;;;;;1.50;1.33;;;;;;;9.08;100.00;153691.25;4933603;29;20491;-77
2023/11/02 05:29:26;;;;;;;1.97;1.23;;;;;;;9.05;100.00;153683.50;4949641;29;20432;-77
2023/11/02 05:31:53;;;;;;;2.03;1.70;;;;;;;9.10;100.00;153696.41;4949618;29;20693;-77
2023/11/02 05:34:20;;;;;;;1.97;1.23;;;;;;;9.13;100.00;153705.44;4965332;28;20605;-76
2023/11/02 05:36:48;;;;;;;2.13;1.50;;;;;;;9.09;100.00;153693.81;4949054;29;20467;-77
2023/11/02 05:39:15;;;;;;;2.20;1.40;;;;;;;9.06;100.00;153686.06;4965134;29;20452;-77
2023/11/02 05:41:42;;;;;;;1.90;1.63;;;;;;;9.00;100.00;153671.81;4949488;29;20487;-77
2023/11/02 05:44:08;;;;;;;2.10;1.60;;;;;;;8.98;100.00;153666.66;4949327;29;20444;-77
2023/11/02 05:46:36;;;;;;;3.83;1.50;;;;;;;9.03;100.00;153678.28;4948462;28;20446;-77
2023/11/02 05:49:03;;;;;;;2.77;1.70;;;;;;;8.98;100.00;153666.66;4948755;29;20439;-77
2023/11/02 05:51:30;;;;;;;2.70;1.80;;;;;;;8.93;100.00;153652.44;4964901;28;20497;-77
2023/11/02 05:53:58;;;;;;;2.10;1.80;;;;;;;8.98;100.00;153665.34;4933237;29;20460;-77
2023/11/02 05:56:25;;;;;;;1.50;1.13;;;;;;;9.04;100.00;153680.88;4949043;29;20501;-77
2023/11/02 05:58:56;;;;;;;1.57;1.30;;;;;;;9.05;100.00;153683.50;4949338;29;20498;-78
2023/11/02 06:01:23;;;;;;;1.43;1.33;;;;;;;9.09;100.00;153693.81;4948957;29;20467;-76
2023/11/02 06:03:50;;;;;;;2.37;1.67;;;;;;;9.12;100.00;153702.88;4949024;29;20454;-77
2023/11/02 06:06:17;;;;;;;2.67;1.40;;;;;;;9.15;100.00;153710.66;4933212;29;20531;-77
2023/11/02 06:08:44;;;;;;;1.60;1.50;;;;;;;9.17;100.00;153714.50;4948595;29;20475;-77
2023/11/02 06:11:12;;;;;;;2.00;1.43;;;;;;;9.16;100.00;153711.91;4948271;29;20507;-76
2023/11/02 06:13:39;;;;;;;1.53;1.03;;;;;;;9.10;100.00;153696.41;4959047;29;20447;-76
2023/11/02 06:16:10;;;;;;;2.20;1.60;;;;;;;9.08;100.00;153691.25;4948619;29;20475;-76
2023/11/02 06:18:37;;;;;;;2.33;1.67;;;;;;;9.04;100.00;153680.88;4948409;29;20439;-77
2023/11/02 06:21:05;;;;;;;2.00;1.40;;;;;;;9.02;100.00;153675.72;4948330;29;20549;-76
2023/11/02 06:23:32;;;;;;;2.47;1.83;;;;;;;9.05;100.00;153684.75;4948267;29;20447;-76
2023/11/02 06:25:58;;;;;;;3.10;2.00;;;;;;;9.03;100.00;153679.59;4932814;29;20499;-76
2023/11/02 06:28:27;;;;;;;1.87;1.40;;;;;;;9.01;100.00;153674.44;4948430;29;20459;-77
2023/11/02 06:30:53;;;;;;;2.30;1.70;;;;;;;9.00;100.00;153670.56;4964978;28;20452;-76
2023/11/02 06:33:25;;;;;;;5.00;2.00;;;;;;;9.00;100.00;153671.81;4948185;29;20453;-76
2023/11/02 06:35:51;;;;;;;3.80;2.27;;;;;;;9.00;100.00;153671.81;4948453;29;20451;-76
2023/11/02 06:38:21;;;;;;;2.67;2.00;;;;;;;8.98;100.00;153665.34;4948149;29;20498;-76
2023/11/02 06:40:48;;;;;;;5.13;1.90;;;;;;;8.97;100.00;153664.09;4947942;29;20447;-76
2023/11/02 06:43:15;;;;;;;2.90;1.97;;;;;;;8.95;100.00;153657.59;4947887;29;20451;-76
2023/11/02 06:45:43;;;;;;;1.70;1.40;;;;;;;8.93;100.00;153653.72;4947990;29;20455;-76
2023/11/02 06:48:10;;;;;;;2.43;1.90;;;;;;;8.91;100.00;153647.28;4948005;29;20459;-76
2023/11/02 06:50:40;;;;;;;2.37;1.70;;;;;;;8.90;100.00;153644.66;4931997;29;20447;-76
2023/11/02 06:53:07;;;;;;;4.93;2.10;;;;;;;8.88;100.00;153640.81;4947175;29;20482;-76
2023/11/02 06:55:34;;;;;;;2.97;1.83;;;;;;;8.86;100.00;153635.66;4947310;29;20452;-76
2023/11/02 06:58:01;;;;;;;2.47;1.70;;;;;;;8.86;100.00;153634.34;4963534;28;20436;-76
2023/11/02 07:00:28;;;;;;;2.30;1.83;;;;;;;8.86;100.00;153635.66;4935516;29;20737;-76
2023/11/02 07:02:56;;;;;;;3.13;1.83;;;;;;;8.87;100.00;153638.22;4951614;29;20479;-77
2023/11/02 07:05:23;;;;;;;1.93;1.67;;;;;;;8.88;100.00;153639.50;4950887;29;20784;-76
2023/11/02 07:07:50;;;;;;;2.00;1.70;;;;;;;8.89;100.00;153642.13;4935143;29;20554;-77
2023/11/02 07:10:17;;;;;;;2.40;1.70;;;;;;;8.93;100.00;153652.44;4951638;29;20451;-77
2023/11/02 07:12:44;;;;;;;2.40;2.00;;;;;;;8.93;100.00;153652.44;4967711;28;20443;-77
2023/11/02 07:15:11;;;;;;;2.23;1.70;;;;;;;8.95;100.00;153657.59;4951171;29;20439;-77
2023/11/02 07:17:38;;;;;;;2.57;1.77;;;;;;;8.96;100.00;153661.50;4951094;29;20435;-77
2023/11/02 07:20:08;;;;;;;1.60;1.30;;;;;;;8.98;100.00;153665.34;4951219;29;20451;-77
2023/11/02 07:22:35;;;;;;;3.00;2.20;;;;;;;8.98;100.00;153665.34;4950861;29;20792;-77
2023/11/02 07:25:02;;;;;;;3.00;1.77;;;;;;;8.98;100.00;153665.34;4966509;28;20443;-76
2023/11/02 07:27:30;;;;;;;1.83;1.57;;;;;;;8.98;100.00;153665.34;4966423;28;20476;-76
2023/11/02 07:29:57;;;;;;;1.87;1.57;;;;;;;8.98;100.00;153665.34;4950494;29;20444;-76
2023/11/02 07:32:24;;;;;;;1.70;1.20;;;;;;;8.99;100.00;153667.97;4950510;29;20798;-76
2023/11/02 07:34:51;;;;;;;3.33;2.70;;;;;;;9.03;100.00;153678.28;4936383;29;20439;-76
2023/11/02 07:37:19;;;;;;;6.90;4.47;;;;;;;9.04;100.00;153680.88;4952154;29;20827;-76
2023/11/02 07:39:47;;;;;;;5.00;3.10;;;;;;;9.06;100.00;153686.06;4952214;29;20442;-76
2023/11/02 07:42:13;;;;;;;3.43;2.93;;;;;;;9.06;100.00;153687.34;4951346;29;20503;-76
2023/11/02 07:44:42;;;;;;;4.97;3.00;;;;;;;9.02;100.00;153677.03;4950864;29;20455;-76
2023/11/02 07:47:09;;;;;;;3.40;2.30;;;;;;;9.01;100.00;153674.44;4951465;29;20470;-76
2023/11/02 07:49:38;;;;;;;3.87;3.10;;;;;;;8.99;100.00;153667.97;4951270;29;20455;-76
2023/11/02 07:52:06;;;;;;;1.87;1.60;;;;;;;9.04;100.00;153680.88;4950874;29;20526;-76
2023/11/02 07:54:36;;;;;;;2.97;1.93;;;;;;;9.02;100.00;153677.03;4935174;29;20451;-76
2023/11/02 07:57:07;;;;;;;3.40;1.93;;;;;;;9.04;100.00;153680.88;4951145;29;20451;-76
2023/11/02 07:59:35;;;;;;;2.10;1.90;;;;;;;9.03;100.00;153679.59;4951097;29;20447;-76
2023/11/02 08:02:05;;;;;;;1.90;1.57;;;;;;;8.99;100.00;153667.97;4951110;29;20712;-77
2023/11/02 08:04:32;;;;;;;2.43;2.07;;;;;;;8.96;100.00;153660.19;4950846;29;20471;-77
2023/11/02 08:06:59;;;;;;;3.03;1.87;;;;;;;8.93;100.00;153652.44;4950856;29;20736;-76
2023/11/02 08:09:26;;;;;;;3.53;2.13;;;;;;;8.89;100.00;153643.41;4967062;28;20454;-76
2023/11/02 08:11:54;;;;;;;3.20;1.93;;;;;;;8.88;100.00;153640.81;4949890;29;20459;-77
2023/11/02 08:14:21;;;;;;;2.20;1.97;;;;;;;8.93;100.00;153653.72;4950590;29;20463;-77
2023/11/02 08:16:47;;;;;;;1.53;1.30;;;;;;;8.92;100.00;153651.13;4950503;29;20463;-76
2023/11/02 08:19:14;;;;;;;2.00;1.80;;;;;;;8.92;100.00;153649.88;4950633;29;20440;-76
2023/11/02 08:21:42;;;;;;;2.40;1.93;;;;;;;8.89;100.00;153642.13;4950289;29;20550;-76
2023/11/02 08:24:09;;;;;;;2.53;1.93;;;;;;;8.87;100.00;153636.94;4966468;28;20450;-76
2023/11/02 08:26:36;;;;;;;2.60;2.23;;;;;;;8.84;100.00;153630.44;4934087;29;20459;-77
2023/11/02 08:29:05;;;;;;;2.40;2.10;;;;;;;8.87;100.00;153636.94;4950208;29;20454;-77
2023/11/02 08:31:32;;;;;;;3.63;2.00;;;;;;;8.88;100.00;153639.50;4949930;29;20867;-77
2023/11/02 08:33:59;;;;;;;2.20;1.80;;;;;;;8.86;100.00;153634.34;4966156;28;20428;-76
2023/11/02 08:36:27;;;;;;;4.43;2.10;;;;;;;8.83;100.00;153626.59;4950550;29;20452;-76
2023/11/02 08:38:55;;;;;;;2.93;2.47;;;;;;;8.87;100.00;153636.94;4934698;29;20463;-76
2023/11/02 08:41:23;;;;;;;2.77;2.20;;;;;;;8.89;100.00;153642.13;4966294;28;20442;-76
2023/11/02 08:43:50;;;;;;;4.50;2.90;;;;;;;8.91;100.00;153647.28;4950544;29;20432;-76
2023/11/02 08:46:20;;;;;;;2.80;2.43;;;;;;;8.91;100.00;153648.56;4949978;29;20565;-76
2023/11/02 08:48:47;;;;;;;3.13;2.83;;;;;;;8.91;100.00;153647.28;4965932;28;20458;-76
2023/11/02 08:51:16;;;;;;;4.30;2.90;;;;;;;8.86;100.00;153635.66;4965943;28;20839;-76
2023/11/02 08:53:43;;;;;;;3.10;2.73;;;;;;;8.89;100.00;153642.13;4950615;29;20495;-76
2023/11/02 08:56:10;;;;;;;4.60;2.40;;;;;;;8.88;100.00;153639.50;4950878;29;20700;-76
2023/11/02 08:58:42;;;;;;;2.80;2.30;;;;;;;8.87;100.00;153636.94;4935415;29;20443;-76
2023/11/02 09:01:10;;;;;;;2.77;2.33;;;;;;;8.84;100.00;153630.44;4950394;29;20518;-76
2023/11/02 09:03:39;;;;;;;3.07;2.70;;;;;;;8.88;100.00;153639.50;4950672;29;20875;-76
2023/11/02 09:06:06;;;;;;;5.70;2.87;;;;;;;8.86;100.00;153634.34;4950423;29;20444;-76
2023/11/02 09:08:34;;;;;;;3.93;2.53;;;;;;;8.90;100.00;153644.66;4950560;29;20436;-76
2023/11/02 09:11:01;;;;;;;3.87;2.90;;;;;;;8.91;100.00;153648.56;4950626;29;20466;-76
2023/11/02 09:13:28;;;;;;;3.40;3.10;;;;;;;8.97;100.00;153662.81;4950199;29;20459;-76
2023/11/02 09:15:55;;;;;;;3.40;3.10;;;;;;;9.02;100.00;153677.03;4950329;29;20475;-76
2023/11/02 09:18:22;;;;;;;3.40;3.10;;;;;;;9.07;100.00;153688.66;4950679;29;20514;-76
2023/11/02 09:20:51;;;;;;;3.67;3.20;;;;;;;9.08;100.00;153691.25;4950197;29;20447;-76
2023/11/02 09:23:18;;;;;;;4.10;2.80;;;;;;;9.13;100.00;153704.19;4949707;29;20487;-77
2023/11/02 09:25:46;;;;;;;2.93;2.63;;;;;;;9.17;100.00;153714.50;4948971;29;20455;-77
2023/11/02 09:28:18;;;;;;;4.10;2.70;;;;;;;9.18;100.00;153718.41;4948961;29;20797;-76
2023/11/02 09:30:46;;;;;;;4.93;2.43;;;;;;;9.20;100.00;153722.28;4948731;29;20779;-76
2023/11/02 09:33:13;;;;;;;3.43;2.53;;;;;;;9.23;100.00;153730.03;4932784;29;20447;-76
2023/11/02 09:35:44;;;;;;;3.80;2.77;;;;;;;9.25;100.00;153735.22;4948760;29;20442;-76
2023/11/02 09:38:13;;;;;;;3.83;3.13;;;;;;;9.28;100.00;153742.97;4964387;28;20784;-76
2023/11/02 09:40:40;;;;;;;3.60;3.00;;;;;;;9.30;100.00;153748.13;4948676;29;20466;-76
2023/11/02 09:43:07;;;;;;;5.50;3.57;;;;;;;9.32;100.00;153753.31;4949504;29;20871;-77
2023/11/02 09:45:36;;;;;;;3.20;2.90;;;;;;;9.32;100.00;153753.31;4933871;29;20518;-78
2023/11/02 09:48:06;;;;;;;4.47;3.53;;;;;;;9.33;100.00;153755.91;4949299;29;20458;-77
2023/11/02 09:50:33;;;;;;;4.77;3.40;;;;;;;9.33;100.00;153755.91;4949304;29;20436;-77
2023/11/02 09:53:00;;;;;;;5.00;3.43;;;;;;;9.35;100.00;153761.06;4949355;29;20443;-77
2023/11/02 09:55:29;;;;;;;6.80;3.40;;;;;;;9.36;100.00;153763.66;4949784;29;20458;-77
2023/11/02 09:57:55;;;;;;;3.53;3.10;;;;;;;9.38;100.00;153767.53;4949542;29;20476;-77
2023/11/02 10:00:23;;;;;;;3.20;2.60;;;;;;;9.45;100.00;153785.69;4948960;29;20519;-77
2023/11/02 10:02:52;;;;;;;2.70;2.23;;;;;;;9.50;100.00;153799.91;4949410;29;20546;-77
2023/11/02 10:05:20;;;;;;;4.37;2.10;;;;;;;9.57;100.00;153816.69;4933902;29;20434;-76
2023/11/02 10:07:48;;;;;;;2.50;1.63;;;;;;;9.60;100.00;153825.78;4948801;29;20432;-76
2023/11/02 10:10:16;;;;;;;1.50;1.27;;;;;;;9.65;100.00;153837.41;4948819;29;20444;-75
2023/11/02 10:12:44;;;;;;;2.73;1.50;;;;;;;9.70;100.00;153851.63;4932872;29;20470;-76
2023/11/02 10:15:14;;;;;;;1.83;1.20;;;;;;;9.77;100.00;153868.44;4949379;29;20462;-76
2023/11/02 10:17:41;;;;;;;2.00;1.20;;;;;;;9.83;100.00;153883.97;4948682;29;20486;-76
2023/11/02 10:20:09;;;;;;;1.50;1.03;;;;;;;9.89;100.00;153899.53;4964676;28;20754;-76
2023/11/02 10:22:36;;;;;;;1.97;1.10;;;;;;;9.93;100.00;153908.59;4948730;29;20479;-76
2023/11/02 10:25:04;;;;;;;1.67;1.10;;;;;;;9.96;100.00;153916.31;4948830;29;20458;-77
2023/11/02 10:27:31;;;;;;;1.10;0.80;;;;;;;9.98;100.00;153921.53;4949046;29;20542;-76
2023/11/02 10:29:59;;;;;;;2.20;0.87;;;;;;;10.04;100.00;153937.03;4948732;29;20431;-77
2023/11/02 10:32:26;;;;;;;1.73;1.07;;;;;;;10.09;100.00;153951.25;4949051;29;20463;-77
2023/11/02 10:34:53;;;;;;;2.30;1.00;;;;;;;10.10;100.00;153952.56;4951539;29;20451;-77
2023/11/02 10:37:31;;;;;;;1.20;0.80;;;;;;;10.15;100.00;153965.56;4952116;29;20478;-77
2023/11/02 10:39:58;;;;;;;1.23;0.90;;;;;;;10.17;100.00;153970.72;4952442;29;20450;-77
2023/11/02 10:42:25;;;;;;;1.23;1.00;;;;;;;10.21;100.00;153982.41;4951792;29;20487;-77
2023/11/02 10:44:52;;;;;;;1.47;0.70;;;;;;;10.25;100.00;153991.44;4952293;29;20451;-77
2023/11/02 10:47:20;;;;;;;1.70;1.00;;;;;;;10.30;100.00;154005.69;4936240;29;20459;-77
2023/11/02 10:49:51;;;;;;;1.13;0.80;;;;;;;10.34;100.00;154016.06;4952099;29;20486;-77
2023/11/02 10:52:30;;;;;;;1.30;0.83;;;;;;;10.35;100.00;154018.63;4951987;29;20484;-78
2023/11/02 10:55:05;;;;;;;1.20;0.70;;;;;;;10.38;100.00;154025.09;4951592;29;20534;-76
2023/11/02 10:57:32;;;;;;;1.50;0.87;;;;;;;10.39;100.00;154027.69;4968001;29;20451;-76
2023/11/02 11:00:00;;;;;;;1.23;0.90;;;;;;;10.42;100.00;154035.47;4967923;28;20463;-76
2023/11/02 11:02:29;;;;;;;1.47;0.50;;;;;;;10.43;100.00;154038.09;4952373;29;20531;-76
2023/11/02 11:04:56;;;;;;;1.03;0.63;;;;;;;10.39;100.00;154029.00;4951980;29;20807;-77
2023/11/02 11:07:24;;;;;;;1.23;0.57;;;;;;;10.41;100.00;154032.88;4936180;29;20463;-77
2023/11/02 11:09:52;;;;;;;1.30;0.70;;;;;;;10.40;100.00;154030.31;4951616;29;20444;-76
2023/11/02 11:12:20;;;;;;;1.40;0.90;;;;;;;10.36;100.00;154019.94;4952018;29;20463;-76
2023/11/02 11:14:48;;;;;;;0.90;0.50;;;;;;;10.36;100.00;154019.94;4935928;29;20443;-77
2023/11/02 11:17:15;;;;;;;1.00;0.60;;;;;;;10.36;100.00;154021.22;4936261;29;20447;-77
2023/11/02 11:19:43;;;;;;;1.40;0.90;;;;;;;10.35;100.00;154018.63;4967667;28;20443;-77
2023/11/02 11:22:13;;;;;;;2.07;0.60;;;;;;;10.36;100.00;154019.94;4935464;29;20498;-77
2023/11/02 11:24:40;;;;;;;1.07;0.50;;;;;;;10.37;100.00;154022.53;4935899;29;20447;-76
2023/11/02 11:27:07;;;;;;;0.83;0.50;;;;;;;10.36;100.00;154021.22;4952003;29;20479;-75
2023/11/02 11:29:36;;;;;;;1.10;0.60;;;;;;;10.34;100.00;154014.75;4952159;29;20440;-76
2023/11/02 11:32:04;;;;;;;1.20;0.50;;;;;;;10.35;100.00;154017.38;4952038;29;20455;-76
2023/11/02 11:35:08;;;;;;;1.10;0.60;;;;;;;10.33;100.00;154013.47;4952036;29;20482;-76